sensor_id;sensor_type;location;lat;lon;timestamp;pressure;altitude;pressure_sealevel;temperature;humidity
3444;BME280;1736;52.068;6.968;2023-02-15T00:02:00;102422.44;;;1.33;100.00
3444;BME280;1736;52.068;6.968;2023-02-15T00:04:26;102425.06;;;1.33;100.00
3444;BME280;1736;52.068;6.968;2023-02-15T00:07:13;102418.88;;;1.37;100.00
3444;BME280;1736;52.068;6.968;2023-02-15T00:09:40;102425.88;;;1.35;100.00
3444;BME280;1736;52.068;6.968;2023-02-15T00:12:06;102415.47;;;1.32;100.00
3444;BME280;1736;52.068;6.968;2023-02-15T00:14:33;102419.81;;;1.33;100.00
3444;BME280;1736;52.068;6.968;2023-02-15T00:16:59;102424.19;;;1.31;100.00
3444;BME280;1736;52.068;6.968;2023-02-15T00:19:26;102415.47;;;1.32;100.00
3444;BME280;1736;52.068;6.968;2023-02-15T00:21:52;102422.53;;;1.27;100.00
3444;BME280;1736;52.068;6.968;2023-02-15T00:24:21;102416.38;;;1.29;100.00
3444;BME280;1736;52.068;6.968;2023-02-15T00:26:47;102410.34;;;1.27;100.00
3444;BME280;1736;52.068;6.968;2023-02-15T00:29:16;102406.94;;;1.22;100.00
3444;BME280;1736;52.068;6.968;2023-02-15T00:31:43;102406.09;;;1.20;100.00
3444;BME280;1736;52.068;6.968;2023-02-15T00:34:12;102399.13;;;1.21;100.00
3444;BME280;1736;52.068;6.968;2023-02-15T00:36:39;102409.59;;;1.19;100.00
3444;BME280;1736;52.068;6.968;2023-02-15T00:39:05;102413.13;;;1.18;100.00
3444;BME280;1736;52.068;6.968;2023-02-15T00:41:33;102415.81;;;1.14;100.00
3444;BME280;1736;52.068;6.968;2023-02-15T00:44:00;102414.00;;;1.16;100.00
3444;BME280;1736;52.068;6.968;2023-02-15T00:46:26;102412.31;;;1.13;100.00
3444;BME280;1736;52.068;6.968;2023-02-15T00:48:53;102410.63;;;1.11;100.00
3444;BME280;1736;52.068;6.968;2023-02-15T00:51:20;102408.03;;;1.09;100.00
3444;BME280;1736;52.068;6.968;2023-02-15T00:53:47;102401.25;;;0.99;100.00
3444;BME280;1736;52.068;6.968;2023-02-15T00:56:13;102392.69;;;0.91;100.00
3444;BME280;1736;52.068;6.968;2023-02-15T00:58:42;102398.78;;;0.92;100.00
3444;BME280;1736;52.068;6.968;2023-02-15T01:01:11;102383.09;;;0.92;100.00
3444;BME280;1736;52.068;6.968;2023-02-15T01:03:39;102389.16;;;0.94;100.00
3444;BME280;1736;52.068;6.968;2023-02-15T01:06:07;102392.50;;;1.00;100.00
3444;BME280;1736;52.068;6.968;2023-02-15T01:08:33;102395.06;;;1.05;100.00
3444;BME280;1736;52.068;6.968;2023-02-15T01:11:03;102394.16;;;1.06;100.00
3444;BME280;1736;52.068;6.968;2023-02-15T01:13:30;102385.41;;;1.07;100.00
3444;BME280;1736;52.068;6.968;2023-02-15T01:15:58;102382.78;;;1.08;100.00
3444;BME280;1736;52.068;6.968;2023-02-15T01:18:24;102380.16;;;1.08;100.00
3444;BME280;1736;52.068;6.968;2023-02-15T01:20:51;102372.22;;;1.14;100.00
3444;BME280;1736;52.068;6.968;2023-02-15T01:23:18;102373.91;;;1.17;100.00
3444;BME280;1736;52.068;6.968;2023-02-15T01:25:44;102377.28;;;1.23;100.00
3444;BME280;1736;52.068;6.968;2023-02-15T01:28:11;102373.75;;;1.26;100.00
3444;BME280;1736;52.068;6.968;2023-02-15T01:30:37;102374.69;;;1.22;100.00
3444;BME280;1736;52.068;6.968;2023-02-15T01:33:05;102374.69;;;1.22;100.00
3444;BME280;1736;52.068;6.968;2023-02-15T01:35:32;102363.94;;;1.37;100.00
3444;BME280;1736;52.068;6.968;2023-02-15T01:37:59;102363.38;;;1.20;100.00
3444;BME280;1736;52.068;6.968;2023-02-15T01:40:25;102359.94;;;1.18;100.00
3444;BME280;1736;52.068;6.968;2023-02-15T01:42:52;102358.34;;;1.11;100.00
3444;BME280;1736;52.068;6.968;2023-02-15T01:45:22;102362.75;;;1.07;100.00
3444;BME280;1736;52.068;6.968;2023-02-15T01:47:53;102354.94;;;1.06;100.00
3444;BME280;1736;52.068;6.968;2023-02-15T01:50:24;102355.84;;;1.05;100.00
3444;BME280;1736;52.068;6.968;2023-02-15T01:52:55;102359.31;;;1.05;100.00
3444;BME280;1736;52.068;6.968;2023-02-15T01:55:24;102361.00;;;1.08;100.00
3444;BME280;1736;52.068;6.968;2023-02-15T01:57:51;102360.13;;;1.09;100.00
3444;BME280;1736;52.068;6.968;2023-02-15T02:00:18;102348.78;;;1.10;100.00
3444;BME280;1736;52.068;6.968;2023-02-15T02:02:47;102349.66;;;1.10;100.00
3444;BME280;1736;52.068;6.968;2023-02-15T02:05:16;102336.59;;;1.09;100.00
3444;BME280;1736;52.068;6.968;2023-02-15T02:07:45;102343.56;;;1.08;100.00
3444;BME280;1736;52.068;6.968;2023-02-15T02:10:15;102339.22;;;1.09;100.00
3444;BME280;1736;52.068;6.968;2023-02-15T02:12:43;102333.91;;;1.12;100.00
3444;BME280;1736;52.068;6.968;2023-02-15T02:15:12;102329.53;;;1.12;100.00
3444;BME280;1736;52.068;6.968;2023-02-15T02:17:51;102332.09;;;1.17;100.00
3444;BME280;1736;52.068;6.968;2023-02-15T02:20:28;102326.84;;;1.17;100.00
3444;BME280;1736;52.068;6.968;2023-02-15T02:26:27;102318.84;;;1.24;100.00
3444;BME280;1736;52.068;6.968;2023-02-15T02:29:33;102323.09;;;1.30;100.00
3444;BME280;1736;52.068;6.968;2023-02-15T02:32:23;102318.72;;;1.30;100.00
3444;BME280;1736;52.068;6.968;2023-02-15T02:35:01;102320.53;;;1.27;100.00
3444;BME280;1736;52.068;6.968;2023-02-15T02:37:34;102325.06;;;1.19;100.00
3444;BME280;1736;52.068;6.968;2023-02-15T02:40:10;102325.06;;;1.19;100.00
3444;BME280;1736;52.068;6.968;2023-02-15T02:42:40;102323.38;;;1.16;100.00
3444;BME280;1736;52.068;6.968;2023-02-15T02:45:09;102330.31;;;1.17;100.00
3444;BME280;1736;52.068;6.968;2023-02-15T02:47:40;102325.06;;;1.19;100.00
3444;BME280;1736;52.068;6.968;2023-02-15T02:50:14;102325.19;;;1.13;100.00
3444;BME280;1736;52.068;6.968;2023-02-15T02:52:42;102322.78;;;1.02;100.00
3444;BME280;1736;52.068;6.968;2023-02-15T02:55:13;102318.56;;;0.94;100.00
3444;BME280;1736;52.068;6.968;2023-02-15T02:57:48;102307.34;;;0.89;100.00
3444;BME280;1736;52.068;6.968;2023-02-15T03:00:19;102310.06;;;0.83;100.00
3444;BME280;1736;52.068;6.968;2023-02-15T03:02:50;102306.66;;;0.79;100.00
3444;BME280;1736;52.068;6.968;2023-02-15T03:05:22;102305.75;;;0.80;100.00
3444;BME280;1736;52.068;6.968;2023-02-15T03:07:52;102295.31;;;0.80;100.00
3444;BME280;1736;52.068;6.968;2023-02-15T03:10:22;102289.28;;;0.77;100.00
3444;BME280;1736;52.068;6.968;2023-02-15T03:12:51;102284.94;;;0.76;100.00
3444;BME280;1736;52.068;6.968;2023-02-15T03:15:20;102278.78;;;0.80;100.00
3444;BME280;1736;52.068;6.968;2023-02-15T03:17:49;102278.69;;;0.83;100.00
3444;BME280;1736;52.068;6.968;2023-02-15T03:20:22;102277.84;;;0.82;100.00
3444;BME280;1736;52.068;6.968;2023-02-15T03:22:53;102280.53;;;0.78;100.00
3444;BME280;1736;52.068;6.968;2023-02-15T03:25:22;102282.34;;;0.76;100.00
3444;BME280;1736;52.068;6.968;2023-02-15T03:27:54;102291.13;;;0.72;100.00
3444;BME280;1736;52.068;6.968;2023-02-15T03:30:22;102278.09;;;0.69;100.00
3444;BME280;1736;52.068;6.968;2023-02-15T03:32:50;102286.00;;;0.66;100.00
3444;BME280;1736;52.068;6.968;2023-02-15T03:35:19;102277.34;;;0.62;100.00
3444;BME280;1736;52.068;6.968;2023-02-15T03:37:53;102276.50;;;0.60;100.00
3444;BME280;1736;52.068;6.968;2023-02-15T03:40:27;102275.72;;;0.57;100.00
3444;BME280;1736;52.068;6.968;2023-02-15T03:43:16;102277.59;;;0.49;100.00
3444;BME280;1736;52.068;6.968;2023-02-15T03:45:47;102265.47;;;0.45;100.00
3444;BME280;1736;52.068;6.968;2023-02-15T03:48:22;102275.03;;;0.44;100.00
3444;BME280;1736;52.068;6.968;2023-02-15T03:50:51;102281.22;;;0.39;100.00
3444;BME280;1736;52.068;6.968;2023-02-15T03:53:39;102272.69;;;0.31;100.00
3444;BME280;1736;52.068;6.968;2023-02-15T03:56:06;102277.03;;;0.30;100.00
3444;BME280;1736;52.068;6.968;2023-02-15T03:58:32;102270.19;;;0.23;100.00
3444;BME280;1736;52.068;6.968;2023-02-15T04:01:22;102281.50;;;0.24;100.00
3444;BME280;1736;52.068;6.968;2023-02-15T04:04:26;102278.00;;;0.25;100.00
3444;BME280;1736;52.068;6.968;2023-02-15T04:06:54;102272.91;;;0.19;100.00
3444;BME280;1736;52.068;6.968;2023-02-15T04:09:22;102278.19;;;0.13;100.00
3444;BME280;1736;52.068;6.968;2023-02-15T04:12:07;102283.47;;;0.09;100.00
3444;BME280;1736;52.068;6.968;2023-02-15T04:14:33;102283.47;;;0.09;100.00
3444;BME280;1736;52.068;6.968;2023-02-15T04:17:17;102280.09;;;0.01;100.00
3444;BME280;1736;52.068;6.968;2023-02-15T04:19:44;102286.25;;;-0.01;100.00
3444;BME280;1736;52.068;6.968;2023-02-15T04:22:28;102280.19;;;-0.02;100.00
3444;BME280;1736;52.068;6.968;2023-02-15T04:25:13;102281.97;;;-0.07;100.00
3444;BME280;1736;52.068;6.968;2023-02-15T04:27:41;102275.94;;;-0.09;100.00
3444;BME280;1736;52.068;6.968;2023-02-15T04:30:09;102272.47;;;-0.11;100.00
3444;BME280;1736;52.068;6.968;2023-02-15T04:32:36;102283.78;;;-0.12;100.00
3444;BME280;1736;52.068;6.968;2023-02-15T04:35:04;102279.47;;;-0.14;100.00
3444;BME280;1736;52.068;6.968;2023-02-15T04:37:32;102277.78;;;-0.15;100.00
3444;BME280;1736;52.068;6.968;2023-02-15T04:39:58;102276.94;;;-0.19;100.00
3444;BME280;1736;52.068;6.968;2023-02-15T04:42:26;102276.94;;;-0.19;100.00
3444;BME280;1736;52.068;6.968;2023-02-15T04:44:53;102262.16;;;-0.20;100.00
3444;BME280;1736;52.068;6.968;2023-02-15T04:47:20;102259.59;;;-0.23;100.00
3444;BME280;1736;52.068;6.968;2023-02-15T04:49:47;102262.19;;;-0.23;100.00
3444;BME280;1736;52.068;6.968;2023-02-15T04:52:14;102257.88;;;-0.24;100.00
3444;BME280;1736;52.068;6.968;2023-02-15T04:54:42;102248.34;;;-0.25;100.00
3444;BME280;1736;52.068;6.968;2023-02-15T04:57:08;102244.88;;;-0.27;100.00
3444;BME280;1736;52.068;6.968;2023-02-15T04:59:36;102243.94;;;-0.23;100.00
3444;BME280;1736;52.068;6.968;2023-02-15T05:02:03;102252.66;;;-0.24;100.00
3444;BME280;1736;52.068;6.968;2023-02-15T05:04:30;102246.63;;;-0.26;100.00
3444;BME280;1736;52.068;6.968;2023-02-15T05:06:56;102236.22;;;-0.27;100.00
3444;BME280;1736;52.068;6.968;2023-02-15T05:09:23;102242.22;;;-0.24;100.00
3444;BME280;1736;52.068;6.968;2023-02-15T05:11:49;102239.59;;;-0.21;100.00
3444;BME280;1736;52.068;6.968;2023-02-15T05:14:16;102237.75;;;-0.14;100.00
3444;BME280;1736;52.068;6.968;2023-02-15T05:16:43;102234.31;;;-0.18;100.00
3444;BME280;1736;52.068;6.968;2023-02-15T05:19:10;102235.19;;;-0.19;100.00
3444;BME280;1736;52.068;6.968;2023-02-15T05:21:36;102228.25;;;-0.20;100.00
3444;BME280;1736;52.068;6.968;2023-02-15T05:24:03;102234.25;;;-0.15;100.00
3444;BME280;1736;52.068;6.968;2023-02-15T05:26:50;102225.59;;;-0.15;100.00
3444;BME280;1736;52.068;6.968;2023-02-15T05:29:34;102233.44;;;-0.17;100.00
3444;BME280;1736;52.068;6.968;2023-02-15T05:32:02;102222.09;;;-0.16;100.00
3444;BME280;1736;52.068;6.968;2023-02-15T05:34:29;102214.31;;;-0.19;100.00
3444;BME280;1736;52.068;6.968;2023-02-15T05:36:55;102211.69;;;-0.17;100.00
3444;BME280;1736;52.068;6.968;2023-02-15T05:39:22;102202.09;;;-0.15;100.00
3444;BME280;1736;52.068;6.968;2023-02-15T05:41:48;102215.06;;;-0.11;100.00
3444;BME280;1736;52.068;6.968;2023-02-15T05:44:15;102215.03;;;-0.09;100.00
3444;BME280;1736;52.068;6.968;2023-02-15T05:46:41;102212.41;;;-0.08;100.00
3444;BME280;1736;52.068;6.968;2023-02-15T05:49:09;102217.66;;;-0.09;100.00
3444;BME280;1736;52.068;6.968;2023-02-15T05:51:36;102215.94;;;-0.12;100.00
3444;BME280;1736;52.068;6.968;2023-02-15T05:54:02;102211.63;;;-0.13;100.00
3444;BME280;1736;52.068;6.968;2023-02-15T05:56:29;102217.75;;;-0.14;100.00
3444;BME280;1736;52.068;6.968;2023-02-15T05:58:55;102217.75;;;-0.14;100.00
3444;BME280;1736;52.068;6.968;2023-02-15T06:01:22;102215.19;;;-0.18;100.00
3444;BME280;1736;52.068;6.968;2023-02-15T06:03:48;102217.00;;;-0.22;100.00
3444;BME280;1736;52.068;6.968;2023-02-15T06:06:16;102217.91;;;-0.24;100.00
3444;BME280;1736;52.068;6.968;2023-02-15T06:08:43;102219.66;;;-0.26;100.00
3444;BME280;1736;52.068;6.968;2023-02-15T06:11:09;102217.09;;;-0.29;100.00
3444;BME280;1736;52.068;6.968;2023-02-15T06:13:36;102219.78;;;-0.34;100.00
3444;BME280;1736;52.068;6.968;2023-02-15T06:16:03;102225.06;;;-0.40;100.00
3444;BME280;1736;52.068;6.968;2023-02-15T06:18:29;102222.47;;;-0.40;100.00
3444;BME280;1736;52.068;6.968;2023-02-15T06:20:56;102232.03;;;-0.39;100.00
3444;BME280;1736;52.068;6.968;2023-02-15T06:23:24;102225.06;;;-0.40;100.00
3444;BME280;1736;52.068;6.968;2023-02-15T06:25:50;102225.97;;;-0.41;100.00
3444;BME280;1736;52.068;6.968;2023-02-15T06:28:17;102226.88;;;-0.42;100.00
3444;BME280;1736;52.068;6.968;2023-02-15T06:30:43;102227.00;;;-0.51;100.00
3444;BME280;1736;52.068;6.968;2023-02-15T06:33:10;102225.28;;;-0.53;100.00
3444;BME280;1736;52.068;6.968;2023-02-15T06:35:36;102230.56;;;-0.56;100.00
3444;BME280;1736;52.068;6.968;2023-02-15T06:38:03;102223.63;;;-0.59;100.00
3444;BME280;1736;52.068;6.968;2023-02-15T06:40:31;102225.38;;;-0.61;100.00
3444;BME280;1736;52.068;6.968;2023-02-15T06:42:57;102216.75;;;-0.63;100.00
3444;BME280;1736;52.068;6.968;2023-02-15T06:45:24;102213.25;;;-0.62;100.00
3444;BME280;1736;52.068;6.968;2023-02-15T06:47:50;102207.09;;;-0.56;100.00
3444;BME280;1736;52.068;6.968;2023-02-15T06:50:17;102216.50;;;-0.48;100.00
3444;BME280;1736;52.068;6.968;2023-02-15T06:52:43;102216.44;;;-0.42;100.00
3444;BME280;1736;52.068;6.968;2023-02-15T06:55:10;102219.88;;;-0.41;100.00
3444;BME280;1736;52.068;6.968;2023-02-15T06:57:38;102214.75;;;-0.46;100.00
3444;BME280;1736;52.068;6.968;2023-02-15T07:00:05;102216.50;;;-0.48;100.00
3444;BME280;1736;52.068;6.968;2023-02-15T07:02:33;102206.16;;;-0.51;100.00
3444;BME280;1736;52.068;6.968;2023-02-15T07:04:59;102212.19;;;-0.49;100.00
3444;BME280;1736;52.068;6.968;2023-02-15T07:07:26;102211.28;;;-0.48;100.00
3444;BME280;1736;52.068;6.968;2023-02-15T07:09:52;102221.72;;;-0.48;100.00
3444;BME280;1736;52.068;6.968;2023-02-15T07:12:19;102208.63;;;-0.43;100.00
3444;BME280;1736;52.068;6.968;2023-02-15T07:15:05;102210.31;;;-0.39;100.00
3444;BME280;1736;52.068;6.968;2023-02-15T07:17:33;102201.59;;;-0.40;100.00
3444;BME280;1736;52.068;6.968;2023-02-15T07:20:00;102205.97;;;-0.39;100.00
3444;BME280;1736;52.068;6.968;2023-02-15T07:22:27;102212.00;;;-0.37;100.00
3444;BME280;1736;52.068;6.968;2023-02-15T07:24:53;102204.94;;;-0.30;100.00
3444;BME280;1736;52.068;6.968;2023-02-15T07:27:20;102202.19;;;-0.21;100.00
3444;BME280;1736;52.068;6.968;2023-02-15T07:29:47;102202.09;;;-0.14;100.00
3444;BME280;1736;52.068;6.968;2023-02-15T07:32:15;102205.47;;;-0.09;100.00
3444;BME280;1736;52.068;6.968;2023-02-15T07:34:41;102195.78;;;-0.02;100.00
3444;BME280;1736;52.068;6.968;2023-02-15T07:37:08;102194.78;;;0.07;100.00
3444;BME280;1736;52.068;6.968;2023-02-15T07:39:34;102190.31;;;0.13;100.00
3444;BME280;1736;52.068;6.968;2023-02-15T07:42:01;102185.84;;;0.20;100.00
3444;BME280;1736;52.068;6.968;2023-02-15T07:44:27;102187.41;;;0.28;100.00
3444;BME280;1736;52.068;6.968;2023-02-15T07:46:54;102175.91;;;0.40;100.00
3444;BME280;1736;52.068;6.968;2023-02-15T07:49:21;102174.84;;;0.50;100.00
3444;BME280;1736;52.068;6.968;2023-02-15T07:51:48;102165.09;;;0.58;100.00
3444;BME280;1736;52.068;6.968;2023-02-15T07:54:14;102177.97;;;0.67;100.00
3444;BME280;1736;52.068;6.968;2023-02-15T07:56:41;102172.63;;;0.74;100.00
3444;BME280;1736;52.068;6.968;2023-02-15T07:59:08;102163.72;;;0.83;100.00
3444;BME280;1736;52.068;6.968;2023-02-15T08:01:36;102160.03;;;0.93;100.00
3444;BME280;1736;52.068;6.968;2023-02-15T08:04:04;102164.19;;;1.01;100.00
3444;BME280;1736;52.068;6.968;2023-02-15T08:06:34;102163.16;;;1.10;100.00
3444;BME280;1736;52.068;6.968;2023-02-15T08:09:03;102161.16;;;1.21;100.00
3444;BME280;1736;52.068;6.968;2023-02-15T08:11:32;102167.00;;;1.32;100.00
3444;BME280;1736;52.068;6.968;2023-02-15T08:14:03;102161.50;;;1.44;100.00
3444;BME280;1736;52.068;6.968;2023-02-15T08:16:32;102163.03;;;1.54;100.00
3444;BME280;1736;52.068;6.968;2023-02-15T08:19:01;102153.06;;;1.68;100.00
3444;BME280;1736;52.068;6.968;2023-02-15T08:21:29;102154.47;;;1.81;100.00
3444;BME280;1736;52.068;6.968;2023-02-15T08:23:57;102150.72;;;1.92;100.00
3444;BME280;1736;52.068;6.968;2023-02-15T08:26:25;102152.09;;;2.07;100.00
3444;BME280;1736;52.068;6.968;2023-02-15T08:28:53;102142.06;;;2.22;100.00
3444;BME280;1736;52.068;6.968;2023-02-15T08:31:20;102140.72;;;2.40;100.00
3444;BME280;1736;52.068;6.968;2023-02-15T08:33:48;102146.31;;;2.58;100.00
3444;BME280;1736;52.068;6.968;2023-02-15T08:36:16;102147.81;;;2.67;100.00
3444;BME280;1736;52.068;6.968;2023-02-15T08:38:43;102141.25;;;2.83;100.00
3444;BME280;1736;52.068;6.968;2023-02-15T08:41:13;102149.53;;;2.98;100.00
3444;BME280;1736;52.068;6.968;2023-02-15T08:43:41;102142.75;;;3.19;100.00
3444;BME280;1736;52.068;6.968;2023-02-15T08:46:09;102145.03;;;3.29;100.00
3444;BME280;1736;52.068;6.968;2023-02-15T08:48:36;102140.63;;;3.31;100.00
3444;BME280;1736;52.068;6.968;2023-02-15T08:51:08;102149.13;;;3.39;100.00
3444;BME280;1736;52.068;6.968;2023-02-15T08:53:36;102140.25;;;3.43;100.00
3444;BME280;1736;52.068;6.968;2023-02-15T08:56:02;102147.78;;;3.54;100.00
3444;BME280;1736;52.068;6.968;2023-02-15T08:58:31;102135.28;;;3.62;100.00
3444;BME280;1736;52.068;6.968;2023-02-15T09:00:58;102138.59;;;3.67;100.00
3444;BME280;1736;52.068;6.968;2023-02-15T09:03:27;102135.53;;;3.80;100.00
3444;BME280;1736;52.068;6.968;2023-02-15T09:05:58;102128.22;;;3.90;100.00
3444;BME280;1736;52.068;6.968;2023-02-15T09:08:25;102129.66;;;3.98;100.00
3444;BME280;1736;52.068;6.968;2023-02-15T09:10:51;102123.38;;;4.02;100.00
3444;BME280;1736;52.068;6.968;2023-02-15T09:13:18;102122.25;;;4.09;100.00
3444;BME280;1736;52.068;6.968;2023-02-15T09:15:46;102118.63;;;4.13;100.00
3444;BME280;1736;52.068;6.968;2023-02-15T09:18:13;102129.00;;;4.18;100.00
3444;BME280;1736;52.068;6.968;2023-02-15T09:20:42;102128.66;;;4.27;100.00
3444;BME280;1736;52.068;6.968;2023-02-15T09:23:09;102122.81;;;4.43;100.00
3444;BME280;1736;52.068;6.968;2023-02-15T09:25:35;102127.84;;;4.49;99.88
3444;BME280;1736;52.068;6.968;2023-02-15T09:28:02;102132.66;;;4.61;99.13
3444;BME280;1736;52.068;6.968;2023-02-15T09:30:28;102122.03;;;4.64;97.33
3444;BME280;1736;52.068;6.968;2023-02-15T09:32:56;102117.50;;;4.68;96.59
3444;BME280;1736;52.068;6.968;2023-02-15T09:35:23;102125.97;;;4.76;96.11
3444;BME280;1736;52.068;6.968;2023-02-15T09:37:49;102131.09;;;4.80;96.12
3444;BME280;1736;52.068;6.968;2023-02-15T09:40:17;102118.78;;;4.81;95.50
3444;BME280;1736;52.068;6.968;2023-02-15T09:42:56;102123.91;;;4.84;95.32
3444;BME280;1736;52.068;6.968;2023-02-15T09:45:33;102117.59;;;4.89;95.74
3444;BME280;1736;52.068;6.968;2023-02-15T09:51:33;102122.28;;;5.04;96.29
3444;BME280;1736;52.068;6.968;2023-02-15T09:54:09;102123.66;;;5.13;95.05
3444;BME280;1736;52.068;6.968;2023-02-15T09:56:40;102126.00;;;5.20;94.93
3444;BME280;1736;52.068;6.968;2023-02-15T09:59:13;102133.13;;;5.40;94.24
3444;BME280;1736;52.068;6.968;2023-02-15T10:01:47;102128.41;;;5.48;92.92
3444;BME280;1736;52.068;6.968;2023-02-15T10:04:27;102131.84;;;5.50;92.26
3444;BME280;1736;52.068;6.968;2023-02-15T10:07:10;102133.81;;;5.67;92.36
3444;BME280;1736;52.068;6.968;2023-02-15T10:09:51;102134.19;;;5.78;92.23
3444;BME280;1736;52.068;6.968;2023-02-15T10:12:40;102128.56;;;5.88;91.15
3444;BME280;1736;52.068;6.968;2023-02-15T10:15:38;102130.25;;;5.89;91.25
3444;BME280;1736;52.068;6.968;2023-02-15T10:18:23;102113.94;;;6.01;91.50
3444;BME280;1736;52.068;6.968;2023-02-15T10:20:59;102114.53;;;6.08;90.54
3444;BME280;1736;52.068;6.968;2023-02-15T10:23:45;102109.84;;;6.14;90.28
3444;BME280;1736;52.068;6.968;2023-02-15T10:26:18;102113.78;;;6.24;89.42
3444;BME280;1736;52.068;6.968;2023-02-15T10:28:47;102114.06;;;6.38;88.53
3444;BME280;1736;52.068;6.968;2023-02-15T10:31:22;102111.53;;;6.55;88.40
3444;BME280;1736;52.068;6.968;2023-02-15T10:34:00;102115.38;;;6.67;87.45
3444;BME280;1736;52.068;6.968;2023-02-15T10:36:46;102112.78;;;6.85;86.57
3444;BME280;1736;52.068;6.968;2023-02-15T10:39:22;102116.00;;;6.92;85.45
3444;BME280;1736;52.068;6.968;2023-02-15T10:41:55;102112.22;;;6.97;84.47
3444;BME280;1736;52.068;6.968;2023-02-15T10:44:37;102115.34;;;7.05;84.44
3444;BME280;1736;52.068;6.968;2023-02-15T10:47:17;102105.59;;;7.07;84.98
3444;BME280;1736;52.068;6.968;2023-02-15T10:50:06;102108.78;;;7.14;84.94
3444;BME280;1736;52.068;6.968;2023-02-15T10:52:46;102108.00;;;7.30;83.99
3444;BME280;1736;52.068;6.968;2023-02-15T10:55:26;102108.41;;;7.21;83.88
3444;BME280;1736;52.068;6.968;2023-02-15T10:58:01;102099.09;;;7.33;84.01
3444;BME280;1736;52.068;6.968;2023-02-15T11:00:37;102091.44;;;7.27;84.59
3444;BME280;1736;52.068;6.968;2023-02-15T11:03:35;102097.34;;;7.32;84.57
3444;BME280;1736;52.068;6.968;2023-02-15T11:06:04;102093.72;;;7.34;84.11
3444;BME280;1736;52.068;6.968;2023-02-15T11:08:37;102100.53;;;7.38;84.07
3444;BME280;1736;52.068;6.968;2023-02-15T11:11:09;102098.88;;;7.54;84.18
3444;BME280;1736;52.068;6.968;2023-02-15T11:13:38;102098.53;;;7.62;83.21
3444;BME280;1736;52.068;6.968;2023-02-15T11:16:10;102100.16;;;7.81;82.09
3444;BME280;1736;52.068;6.968;2023-02-15T11:18:42;102091.28;;;7.82;82.01
3444;BME280;1736;52.068;6.968;2023-02-15T11:21:12;102088.28;;;7.90;82.24
3444;BME280;1736;52.068;6.968;2023-02-15T11:23:44;102091.22;;;8.01;81.45
3444;BME280;1736;52.068;6.968;2023-02-15T11:26:17;102086.81;;;8.01;81.27
3444;BME280;1736;52.068;6.968;2023-02-15T11:28:49;102083.69;;;8.10;81.30
3444;BME280;1736;52.068;6.968;2023-02-15T11:31:21;102078.84;;;8.18;80.60
3444;BME280;1736;52.068;6.968;2023-02-15T11:33:51;102078.25;;;8.30;79.58
3444;BME280;1736;52.068;6.968;2023-02-15T11:36:21;102070.91;;;8.35;79.52
3444;BME280;1736;52.068;6.968;2023-02-15T11:38:54;102066.72;;;8.48;78.93
3444;BME280;1736;52.068;6.968;2023-02-15T11:41:27;102062.78;;;8.55;78.43
3444;BME280;1736;52.068;6.968;2023-02-15T11:43:58;102059.22;;;8.56;77.97
3444;BME280;1736;52.068;6.968;2023-02-15T11:46:27;102062.38;;;8.63;77.28
3444;BME280;1736;52.068;6.968;2023-02-15T11:48:53;102062.84;;;8.71;77.18
3444;BME280;1736;52.068;6.968;2023-02-15T11:51:21;102068.81;;;8.74;76.97
3444;BME280;1736;52.068;6.968;2023-02-15T11:53:49;102064.69;;;8.84;76.52
3444;BME280;1736;52.068;6.968;2023-02-15T11:56:18;102059.94;;;9.06;75.58
3444;BME280;1736;52.068;6.968;2023-02-15T11:58:49;102045.25;;;9.01;75.87
3444;BME280;1736;52.068;6.968;2023-02-15T12:01:20;102049.69;;;9.00;75.86
3444;BME280;1736;52.068;6.968;2023-02-15T12:03:50;102046.13;;;9.01;75.29
3444;BME280;1736;52.068;6.968;2023-02-15T12:06:23;102044.38;;;9.00;75.56
3444;BME280;1736;52.068;6.968;2023-02-15T12:08:55;102039.97;;;9.01;75.71
3444;BME280;1736;52.068;6.968;2023-02-15T12:11:29;102033.47;;;9.06;75.84
3444;BME280;1736;52.068;6.968;2023-02-15T12:14:01;102032.94;;;9.15;75.11
3444;BME280;1736;52.068;6.968;2023-02-15T12:16:32;102035.59;;;9.15;75.05
3444;BME280;1736;52.068;6.968;2023-02-15T12:19:01;102029.00;;;9.22;75.00
3444;BME280;1736;52.068;6.968;2023-02-15T12:21:30;102027.13;;;9.24;74.78
3444;BME280;1736;52.068;6.968;2023-02-15T12:24:01;102033.78;;;9.31;74.26
3444;BME280;1736;52.068;6.968;2023-02-15T12:26:31;102034.66;;;9.32;74.18
3444;BME280;1736;52.068;6.968;2023-02-15T12:29:01;102023.94;;;9.33;74.63
3444;BME280;1736;52.068;6.968;2023-02-15T12:31:36;102027.19;;;9.38;74.78
3444;BME280;1736;52.068;6.968;2023-02-15T12:34:09;102019.22;;;9.54;74.15
3444;BME280;1736;52.068;6.968;2023-02-15T12:36:43;102015.13;;;9.48;74.35
3444;BME280;1736;52.068;6.968;2023-02-15T12:39:20;102014.94;;;9.51;73.88
3444;BME280;1736;52.068;6.968;2023-02-15T12:41:59;102009.63;;;9.51;74.49
3444;BME280;1736;52.068;6.968;2023-02-15T12:44:28;102006.81;;;9.54;73.76
3444;BME280;1736;52.068;6.968;2023-02-15T12:46:57;102003.06;;;9.58;73.84
3444;BME280;1736;52.068;6.968;2023-02-15T12:49:25;101995.03;;;9.88;73.00
3444;BME280;1736;52.068;6.968;2023-02-15T12:51:54;101991.97;;;9.95;71.15
3444;BME280;1736;52.068;6.968;2023-02-15T12:54:38;101997.03;;;9.98;70.65
3444;BME280;1736;52.068;6.968;2023-02-15T12:57:25;101990.72;;;10.01;70.98
3444;BME280;1736;52.068;6.968;2023-02-15T12:59:55;101985.38;;;10.16;69.86
3444;BME280;1736;52.068;6.968;2023-02-15T13:02:30;101982.72;;;10.16;69.82
3444;BME280;1736;52.068;6.968;2023-02-15T13:05:14;101978.63;;;10.11;69.60
3444;BME280;1736;52.068;6.968;2023-02-15T13:07:45;101974.56;;;10.05;69.91
3444;BME280;1736;52.068;6.968;2023-02-15T13:10:23;101978.81;;;10.08;70.41
3444;BME280;1736;52.068;6.968;2023-02-15T13:12:51;101973.44;;;10.23;69.00
3444;BME280;1736;52.068;6.968;2023-02-15T13:15:33;101967.56;;;10.32;69.20
3444;BME280;1736;52.068;6.968;2023-02-15T13:18:02;101964.78;;;10.48;68.66
3444;BME280;1736;52.068;6.968;2023-02-15T13:20:29;101955.59;;;10.53;66.76
3444;BME280;1736;52.068;6.968;2023-02-15T13:22:59;101957.28;;;10.54;66.85
3444;BME280;1736;52.068;6.968;2023-02-15T13:25:32;101952.75;;;10.57;67.58
3444;BME280;1736;52.068;6.968;2023-02-15T13:28:02;101957.19;;;10.70;67.29
3444;BME280;1736;52.068;6.968;2023-02-15T13:30:33;101947.47;;;10.83;65.23
3444;BME280;1736;52.068;6.968;2023-02-15T13:33:03;101943.22;;;10.81;64.43
3444;BME280;1736;52.068;6.968;2023-02-15T13:35:37;101949.97;;;10.99;62.50